Wetterdaten: Freitag, 01.06.2012
Datum Zeit Temp. a Sch. Temp. a Son. Temp. a Bod. Feuchte a. Luftdruck Regen Wind Richtung Richtung Sonnenschein Helligkeit Taupunkt Windchill
01.06.2012 00:02 13,1 C 13,7 C 13,3 C 85 % 1014 hPa 0,0 l/m 6,9 m/s (4 Bft) W-NW45 300 0 min 0 lux 10,6 C 6,1 C
01.06.2012 00:07 13,0 C 13,7 C 13,0 C 85 % 1014 hPa 1,1 l/m 5,1 m/s (3 Bft) W-NW45 290 0 min 0 lux 10,5 C 7,7 C
01.06.2012 00:11 13,0 C 13,6 C 13,2 C 86 % 1014 hPa 0,0 l/m 4,6 m/s (3 Bft) W-NW45 285 0 min 0 lux 10,7 C 8,2 C
01.06.2012 00:16 13,0 C 13,7 C 13,2 C 86 % 1014 hPa 0,0 l/m 4,3 m/s (3 Bft) W-NW45 295 0 min 0 lux 10,7 C 8,6 C
01.06.2012 00:21 13,0 C 13,6 C 13,3 C 86 % 1014 hPa 0,4 l/m 4,6 m/s (3 Bft) W-NW45 290 0 min 0 lux 10,7 C 8,2 C
01.06.2012 00:26 13,0 C 13,5 C 13,2 C 86 % 1014 hPa 0,4 l/m 4,8 m/s (3 Bft) W-NW45 290 0 min 0 lux 10,7 C 7,9 C
01.06.2012 00:31 12,9 C 13,5 C 13,2 C 87 % 1014 hPa 0,0 l/m 2,8 m/s (2 Bft) W45 260 0 min 0 lux 10,8 C 10,7 C
01.06.2012 00:36 12,9 C 13,5 C 13,1 C 87 % 1014 hPa 0,0 l/m 4,8 m/s (3 Bft) W45 275 0 min 0 lux 10,8 C 7,9 C
01.06.2012 00:41 12,9 C 13,5 C 13,4 C 87 % 1013 hPa 0,0 l/m 6,9 m/s (4 Bft) NW45 305 0 min 0 lux 10,8 C 5,8 C
01.06.2012 00:46 12,9 C 13,4 C 13,3 C 87 % 1013 hPa 0,4 l/m 3,3 m/s (2 Bft) W45 265 0 min 0 lux 10,8 C 9,9 C
01.06.2012 00:51 12,9 C 13,4 C 13,2 C 87 % 1013 hPa 0,4 l/m 5,0 m/s (3 Bft) W45 275 0 min 0 lux 10,8 C 7,6 C
01.06.2012 00:56 12,9 C 13,5 C 13,3 C 88 % 1014 hPa 0,4 l/m 2,4 m/s (2 Bft) W45 280 0 min 0 lux 11,0 C 11,5 C
01.06.2012 01:01 12,9 C 13,5 C 13,4 C 88 % 1014 hPa 0,0 l/m 3,3 m/s (2 Bft) W22.5 260 0 min 0 lux 11,0 C 9,9 C
01.06.2012 01:06 12,9 C 13,5 C 13,2 C 88 % 1014 hPa 0,7 l/m 4,2 m/s (3 Bft) W-NW45 300 0 min 0 lux 11,0 C 8,6 C
01.06.2012 01:11 12,9 C 13,4 C 13,2 C 88 % 1014 hPa 0,0 l/m 2,7 m/s (2 Bft) W22.5 275 0 min 0 lux 11,0 C 11,0 C
01.06.2012 01:16 12,8 C 13,4 C 13,2 C 88 % 1014 hPa 0,0 l/m 3,1 m/s (2 Bft) W45 265 0 min 0 lux 10,9 C 10,2 C
01.06.2012 01:21 12,8 C 13,4 C 13,2 C 88 % 1014 hPa 0,0 l/m 2,9 m/s (2 Bft) W45 270 0 min 0 lux 10,9 C 10,5 C
01.06.2012 01:26 12,8 C 13,4 C 13,1 C 88 % 1014 hPa 0,0 l/m 2,9 m/s (2 Bft) W45 275 0 min 0 lux 10,9 C 10,5 C
01.06.2012 01:31 12,8 C 13,4 C 13,2 C 88 % 1014 hPa 0,0 l/m 3,4 m/s (2 Bft) W45 260 0 min 0 lux 10,9 C 9,7 C
01.06.2012 01:36 12,9 C 13,4 C 13,0 C 88 % 1014 hPa 0,0 l/m 5,2 m/s (3 Bft) W-NW45 290 0 min 0 lux 11,0 C 7,4 C
01.06.2012 01:41 12,9 C 13,4 C 13,1 C 88 % 1014 hPa 0,0 l/m 2,4 m/s (2 Bft) W-SW45 250 0 min 0 lux 11,0 C 11,5 C
01.06.2012 01:46 12,9 C 13,4 C 13,0 C 88 % 1014 hPa 0,0 l/m 2,0 m/s (2 Bft) W-SW45 250 0 min 0 lux 11,0 C 12,4 C
01.06.2012 01:51 12,9 C 13,4 C 12,9 C 88 % 1014 hPa 0,0 l/m 5,8 m/s (4 Bft) W-NW45 295 0 min 0 lux 11,0 C 6,8 C
01.06.2012 01:56 12,9 C 13,4 C 12,9 C 87 % 1014 hPa 0,0 l/m 3,8 m/s (3 Bft) W45 270 0 min 0 lux 10,8 C 9,2 C
01.06.2012 02:01 12,9 C 13,4 C 12,9 C 87 % 1014 hPa 0,0 l/m 3,8 m/s (3 Bft) W45 280 0 min 0 lux 10,8 C 9,1 C
01.06.2012 02:06 12,8 C 13,4 C 12,7 C 86 % 1014 hPa 0,0 l/m 4,4 m/s (3 Bft) W-NW22.5 290 0 min 0 lux 10,5 C 8,2 C
01.06.2012 02:11 12,8 C 13,4 C 12,8 C 86 % 1014 hPa 0,0 l/m 5,3 m/s (3 Bft) W45 275 0 min 0 lux 10,5 C 7,2 C
01.06.2012 02:16 12,7 C 13,3 C 12,7 C 85 % 1014 hPa 0,0 l/m 4,5 m/s (3 Bft) W45 275 0 min 0 lux 10,2 C 8,0 C
01.06.2012 02:21 12,6 C 13,3 C 12,8 C 85 % 1014 hPa 0,0 l/m 5,2 m/s (3 Bft) W-NW45 295 0 min 0 lux 10,1 C 7,0 C
01.06.2012 02:26 12,6 C 13,2 C 12,7 C 85 % 1014 hPa 0,0 l/m 6,2 m/s (4 Bft) W-NW45 295 0 min 0 lux 10,1 C 6,0 C
01.06.2012 02:31 12,5 C 13,2 C 12,7 C 85 % 1014 hPa 0,0 l/m 3,6 m/s (3 Bft) W45 270 0 min 0 lux 10,0 C 8,9 C
01.06.2012 02:36 12,5 C 13,2 C 12,7 C 85 % 1014 hPa 0,0 l/m 3,5 m/s (3 Bft) W45 275 0 min 0 lux 10,0 C 9,1 C
01.06.2012 02:41 12,5 C 13,1 C 12,9 C 85 % 1014 hPa 0,0 l/m 3,2 m/s (2 Bft) W45 275 0 min 0 lux 10,0 C 9,7 C
01.06.2012 02:46 12,4 C 13,1 C 12,8 C 85 % 1014 hPa 0,0 l/m 2,4 m/s (2 Bft) W45 265 0 min 0 lux 9,9 C 11,0 C
01.06.2012 02:51 12,4 C 13,1 C 12,6 C 85 % 1014 hPa 0,4 l/m 3,3 m/s (2 Bft) W45 265 0 min 0 lux 9,9 C 9,4 C
01.06.2012 02:56 12,4 C 13,1 C 12,7 C 85 % 1014 hPa 0,0 l/m 4,3 m/s (3 Bft) W45 280 0 min 0 lux 9,9 C 7,8 C
01.06.2012 03:01 12,3 C 13,0 C 12,7 C 85 % 1014 hPa 0,0 l/m 4,5 m/s (3 Bft) W-NW45 290 0 min 0 lux 9,9 C 7,5 C
01.06.2012 03:06 12,3 C 13,0 C 12,7 C 85 % 1014 hPa 0,0 l/m 2,1 m/s (2 Bft) W-SW22.5 255 0 min 0 lux 9,9 C 11,6 C
01.06.2012 03:11 12,2 C 12,9 C 12,6 C 85 % 1014 hPa 0,0 l/m 5,0 m/s (3 Bft) W22.5 260 0 min 0 lux 9,8 C 6,7 C
01.06.2012 03:16 12,2 C 12,9 C 12,6 C 85 % 1014 hPa 0,0 l/m 3,6 m/s (3 Bft) W22.5 270 0 min 0 lux 9,8 C 8,7 C
01.06.2012 03:21 12,2 C 12,8 C 12,5 C 85 % 1014 hPa 0,0 l/m 3,5 m/s (3 Bft) W45 270 0 min 0 lux 9,8 C 8,8 C
01.06.2012 03:26 12,1 C 12,8 C 12,4 C 85 % 1014 hPa 0,0 l/m 4,3 m/s (3 Bft) W45 275 0 min 0 lux 9,7 C 7,5 C
01.06.2012 03:31 12,1 C 12,7 C 12,3 C 84 % 1014 hPa 0,0 l/m 3,5 m/s (3 Bft) W45 270 0 min 0 lux 9,5 C 8,7 C
01.06.2012 03:36 12,0 C 12,7 C 12,3 C 84 % 1014 hPa 0,0 l/m 4,0 m/s (3 Bft) W45 280 0 min 0 lux 9,4 C 7,8 C
01.06.2012 03:41 12,0 C 12,7 C 12,5 C 84 % 1014 hPa 0,0 l/m 4,1 m/s (3 Bft) W22.5 270 0 min 0 lux 9,4 C 7,7 C
01.06.2012 03:46 12,0 C 12,7 C 12,2 C 84 % 1014 hPa 0,0 l/m 4,0 m/s (3 Bft) W45 275 0 min 0 lux 9,4 C 7,8 C
01.06.2012 03:51 11,8 C 12,6 C 12,1 C 85 % 1014 hPa 0,0 l/m 3,1 m/s (2 Bft) W-SW45 250 0 min 0 lux 9,4 C 8,9 C
01.06.2012 03:56 11,8 C 12,6 C 12,1 C 85 % 1014 hPa 0,0 l/m 2,8 m/s (2 Bft) W45 275 0 min 0 lux 9,4 C 9,5 C
01.06.2012 04:01 11,8 C 12,5 C 12,4 C 85 % 1014 hPa 0,0 l/m 2,9 m/s (2 Bft) W-SW22.5 245 0 min 0 lux 9,4 C 9,3 C
01.06.2012 04:06 11,8 C 12,5 C 12,3 C 85 % 1014 hPa 0,0 l/m 2,2 m/s (2 Bft) W45 260 0 min 0 lux 9,4 C 10,8 C
01.06.2012 04:11 11,7 C 12,5 C 12,2 C 84 % 1014 hPa 0,0 l/m 2,1 m/s (2 Bft) W-SW 250 0 min 0 lux 9,1 C 11,0 C
01.06.2012 04:16 11,7 C 12,5 C 12,3 C 84 % 1014 hPa 0,0 l/m 2,0 m/s (2 Bft) W-SW22.5 245 0 min 0 lux 9,1 C 11,2 C
01.06.2012 04:21 11,7 C 12,4 C 12,1 C 84 % 1015 hPa 0,0 l/m 3,0 m/s (2 Bft) W45 270 0 min 0 lux 9,1 C 9,1 C
01.06.2012 04:26 11,7 C 12,4 C 11,9 C 84 % 1015 hPa 0,0 l/m 3,7 m/s (3 Bft) W-SW45 255 0 min 0 lux 9,1 C 7,8 C
01.06.2012 04:31 11,6 C 12,3 C 11,9 C 84 % 1015 hPa 0,0 l/m 4,7 m/s (3 Bft) W45 270 0 min 0 lux 9,0 C 6,3 C
01.06.2012 04:36 11,5 C 12,3 C 11,8 C 84 % 1015 hPa 0,0 l/m 4,6 m/s (3 Bft) W67.5 280 0 min 0 lux 8,9 C 6,4 C
01.06.2012 04:41 11,4 C 12,1 C 11,6 C 83 % 1015 hPa 0,0 l/m 4,2 m/s (3 Bft) W45 275 0 min 0 lux 8,6 C 6,8 C
01.06.2012 04:46 11,4 C 12,1 C 11,6 C 83 % 1015 hPa 0,0 l/m 3,3 m/s (2 Bft) W-NW45 285 0 min 0 lux 8,6 C 8,3 C
01.06.2012 04:52 11,3 C 12,0 C 11,4 C 83 % 1015 hPa 0,0 l/m 7,1 m/s (4 Bft) NW22.5 310 0 min 0 lux 8,5 C 3,4 C
01.06.2012 04:57 11,2 C 12,0 C 11,4 C 82 % 1015 hPa 0,0 l/m 6,0 m/s (4 Bft) W-NW22.5 290 0 min 0 lux 8,2 C 4,4 C
01.06.2012 05:02 11,2 C 11,9 C 11,4 C 81 % 1015 hPa 0,0 l/m 6,5 m/s (4 Bft) W-NW45 295 0 min 33 lux 8,1 C 3,8 C
01.06.2012 05:07 11,1 C 11,9 C 11,3 C 81 % 1015 hPa 0,0 l/m 3,4 m/s (3 Bft) W45 280 0 min 35 lux 8,0 C 7,6 C
01.06.2012 05:12 11,0 C 11,8 C 11,5 C 81 % 1015 hPa 0,0 l/m 3,1 m/s (2 Bft) W45 275 0 min 40 lux 7,9 C 8,0 C
01.06.2012 05:17 11,0 C 11,7 C 11,3 C 81 % 1015 hPa 0,0 l/m 4,5 m/s (3 Bft) W45 280 0 min 80 lux 7,9 C 5,9 C
01.06.2012 05:22 11,0 C 11,7 C 11,3 C 81 % 1015 hPa 0,0 l/m 3,9 m/s (3 Bft) W-NW45 285 0 min 92 lux 7,9 C 6,8 C
01.06.2012 05:27 10,9 C 11,6 C 11,2 C 81 % 1015 hPa 0,0 l/m 5,4 m/s (3 Bft) W22.5 280 0 min 132 lux 7,8 C 4,7 C
01.06.2012 05:32 10,8 C 11,6 C 11,0 C 81 % 1015 hPa 0,0 l/m 4,9 m/s (3 Bft) W-NW45 285 0 min 205 lux 7,7 C 5,2 C
01.06.2012 05:37 10,8 C 11,5 C 11,3 C 81 % 1015 hPa 0,0 l/m 5,3 m/s (3 Bft) W-NW45 285 0 min 387 lux 7,7 C 4,6 C
01.06.2012 05:42 10,7 C 11,5 C 11,1 C 81 % 1015 hPa 0,0 l/m 3,5 m/s (3 Bft) W45 275 0 min 687 lux 7,6 C 7,1 C
01.06.2012 05:47 10,7 C 11,4 C 11,1 C 82 % 1015 hPa 0,0 l/m 3,4 m/s (2 Bft) W67.5 265 0 min 861 lux 7,8 C 7,3 C
01.06.2012 05:52 10,7 C 11,4 C 11,1 C 82 % 1015 hPa 0,0 l/m 5,4 m/s (3 Bft) W45 280 0 min 792 lux 7,8 C 4,3 C
01.06.2012 05:57 10,7 C 11,4 C 11,3 C 82 % 1015 hPa 0,0 l/m 3,4 m/s (3 Bft) W22.5 270 0 min 925 lux 7,8 C 7,2 C
01.06.2012 06:02 10,7 C 11,4 C 11,2 C 82 % 1015 hPa 0,0 l/m 3,7 m/s (3 Bft) W45 270 0 min 824 lux 7,8 C 6,7 C
01.06.2012 06:07 10,7 C 11,3 C 11,1 C 82 % 1015 hPa 0,0 l/m 5,0 m/s (3 Bft) W45 270 0 min 1,12 klux 7,8 C 4,8 C
01.06.2012 06:12 10,6 C 11,3 C 11,0 C 82 % 1015 hPa 0,0 l/m 4,1 m/s (3 Bft) W45 275 0 min 1,07 klux 7,7 C 5,9 C
01.06.2012 06:17 10,6 C 11,3 C 11,0 C 82 % 1015 hPa 0,0 l/m 3,6 m/s (3 Bft) W45 265 0 min 2,80 klux 7,7 C 6,8 C
01.06.2012 06:22 10,7 C 11,3 C 11,2 C 83 % 1015 hPa 0,0 l/m 3,5 m/s (3 Bft) W45 270 0 min 2,47 klux 7,9 C 7,0 C
01.06.2012 06:27 10,7 C 11,3 C 11,4 C 83 % 1015 hPa 0,0 l/m 3,0 m/s (2 Bft) W22.5 265 0 min 3,51 klux 7,9 C 7,9 C
01.06.2012 06:32 10,8 C 11,3 C 11,4 C 83 % 1015 hPa 0,0 l/m 3,2 m/s (2 Bft) W-SW22.5 255 0 min 5,15 klux 8,0 C 7,7 C
01.06.2012 06:37 10,9 C 11,4 C 11,4 C 83 % 1015 hPa 0,0 l/m 3,4 m/s (2 Bft) W45 280 0 min 5,44 klux 8,1 C 7,5 C
01.06.2012 06:41 11,0 C 11,4 C 11,5 C 83 % 1015 hPa 0,0 l/m 2,8 m/s (2 Bft) W22.5 260 0 min 9,2 klux 8,2 C 8,6 C
01.06.2012 06:46 11,1 C 11,5 C 11,5 C 82 % 1016 hPa 0,0 l/m 4,4 m/s (3 Bft) W45 280 0 min 9,8 klux 8,1 C 6,1 C
01.06.2012 06:51 11,3 C 11,5 C 11,6 C 82 % 1016 hPa 0,0 l/m 3,6 m/s (3 Bft) W45 270 0 min 7,39 klux 8,3 C 7,5 C
01.06.2012 06:56 11,3 C 11,6 C 11,8 C 82 % 1016 hPa 0,0 l/m 2,8 m/s (2 Bft) W45 270 0 min 7,76 klux 8,3 C 9,0 C
01.06.2012 07:01 11,4 C 11,6 C 11,6 C 82 % 1016 hPa 0,0 l/m 3,8 m/s (3 Bft) W45 260 0 min 5,30 klux 8,4 C 7,4 C
01.06.2012 07:06 11,2 C 11,6 C 11,6 C 81 % 1016 hPa 0,0 l/m 3,6 m/s (3 Bft) W22.5 270 0 min 4,56 klux 8,1 C 7,4 C
01.06.2012 07:11 11,1 C 11,6 C 11,7 C 81 % 1016 hPa 0,0 l/m 3,4 m/s (2 Bft) W45 265 0 min 5,03 klux 8,0 C 7,7 C
01.06.2012 07:16 11,2 C 11,6 C 11,7 C 82 % 1016 hPa 0,0 l/m 2,9 m/s (2 Bft) W45 265 0 min 4,95 klux 8,2 C 8,6 C
01.06.2012 07:21 11,1 C 11,6 C 11,6 C 82 % 1016 hPa 0,0 l/m 3,5 m/s (3 Bft) W45 270 0 min 4,01 klux 8,1 C 7,5 C
01.06.2012 07:26 11,1 C 11,6 C 11,6 C 82 % 1016 hPa 0,0 l/m 3,1 m/s (2 Bft) W22.5 260 0 min 4,66 klux 8,1 C 8,1 C
01.06.2012 07:31 11,1 C 11,6 C 11,6 C 82 % 1016 hPa 0,0 l/m 3,1 m/s (2 Bft) W45 260 0 min 4,74 klux 8,1 C 8,1 C
01.06.2012 07:36 11,1 C 11,6 C 11,5 C 82 % 1016 hPa 0,0 l/m 3,4 m/s (2 Bft) W45 275 0 min 4,76 klux 8,1 C 7,7 C
01.06.2012 07:41 11,1 C 11,6 C 11,6 C 82 % 1016 hPa 0,0 l/m 4,2 m/s (3 Bft) W45 270 0 min 5,53 klux 8,1 C 6,4 C
01.06.2012 07:46 11,1 C 11,6 C 11,7 C 82 % 1016 hPa 0,0 l/m 3,4 m/s (3 Bft) W45 265 0 min 5,22 klux 8,1 C 7,6 C
01.06.2012 07:51 11,1 C 11,6 C 11,5 C 82 % 1016 hPa 0,0 l/m 4,2 m/s (3 Bft) W22.5 275 0 min 4,63 klux 8,1 C 6,5 C
01.06.2012 07:56 11,1 C 11,6 C 11,8 C 82 % 1016 hPa 0,0 l/m 3,8 m/s (3 Bft) W45 275 0 min 10,7 klux 8,1 C 7,0 C
01.06.2012 08:01 11,4 C 11,7 C 12,1 C 83 % 1016 hPa 0,0 l/m 2,8 m/s (2 Bft) W22.5 265 0 min 12,4 klux 8,6 C 9,1 C
01.06.2012 08:06 11,5 C 11,7 C 12,0 C 83 % 1016 hPa 0,0 l/m 4,0 m/s (3 Bft) W-NW45 285 0 min 12,6 klux 8,7 C 7,2 C
01.06.2012 08:11 11,8 C 11,9 C 12,5 C 82 % 1016 hPa 0,0 l/m 3,4 m/s (2 Bft) W-NW22.5 285 0 min 14,9 klux 8,8 C 8,5 C
01.06.2012 08:16 12,2 C 12,0 C 12,5 C 81 % 1016 hPa 0,0 l/m 2,9 m/s (2 Bft) W-SW45 255 0 min 19,4 klux 9,0 C 9,9 C
01.06.2012 08:21 12,5 C 12,0 C 12,7 C 81 % 1016 hPa 0,0 l/m 4,6 m/s (3 Bft) W45 280 0 min 20,4 klux 9,3 C 7,6 C
01.06.2012 08:26 12,8 C 12,1 C 12,8 C 80 % 1016 hPa 0,0 l/m 4,1 m/s (3 Bft) W45 270 0 min 33,2 klux 9,4 C 8,6 C
01.06.2012 08:31 13,2 C 12,3 C 13,1 C 78 % 1016 hPa 0,0 l/m 3,4 m/s (2 Bft) W45 270 0 min 29,9 klux 9,4 C 10,1 C
01.06.2012 08:36 13,2 C 12,5 C 13,2 C 77 % 1016 hPa 0,0 l/m 3,1 m/s (2 Bft) W-NW45 285 0 min 23,6 klux 9,3 C 10,6 C
01.06.2012 08:41 13,2 C 12,7 C 13,2 C 76 % 1016 hPa 0,0 l/m 4,6 m/s (3 Bft) W45 275 0 min 22,2 klux 9,1 C 8,5 C
01.06.2012 08:46 13,0 C 12,7 C 13,1 C 76 % 1016 hPa 0,0 l/m 4,8 m/s (3 Bft) W45 275 0 min 15,9 klux 8,9 C 8,0 C
01.06.2012 08:52 12,7 C 12,8 C 12,7 C 77 % 1016 hPa 0,0 l/m 3,8 m/s (3 Bft) W-NW45 290 0 min 11,0 klux 8,8 C 8,9 C
01.06.2012 08:57 12,7 C 12,7 C 12,7 C 77 % 1016 hPa 0,0 l/m 5,6 m/s (4 Bft) W45 280 0 min 11,3 klux 8,8 C 6,7 C
01.06.2012 09:01 12,4 C 12,7 C 12,8 C 78 % 1016 hPa 0,0 l/m 3,9 m/s (3 Bft) W45 275 0 min 8,96 klux 8,7 C 8,4 C
01.06.2012 09:06 12,3 C 12,7 C 12,8 C 78 % 1016 hPa 0,0 l/m 3,5 m/s (3 Bft) W45 280 0 min 9,4 klux 8,6 C 8,9 C
01.06.2012 09:11 12,2 C 12,7 C 12,7 C 78 % 1016 hPa 0,0 l/m 3,8 m/s (3 Bft) W45 270 0 min 9,4 klux 8,5 C 8,4 C
01.06.2012 09:16 12,2 C 12,7 C 12,9 C 78 % 1016 hPa 0,0 l/m 3,4 m/s (2 Bft) W-NW45 290 0 min 14,9 klux 8,5 C 9,0 C
01.06.2012 09:21 12,4 C 12,7 C 13,1 C 79 % 1016 hPa 0,0 l/m 3,4 m/s (3 Bft) W45 275 0 min 12,4 klux 8,9 C 9,1 C
01.06.2012 09:27 12,7 C 12,8 C 13,3 C 79 % 1017 hPa 0,0 l/m 4,0 m/s (3 Bft) W-NW45 290 0 min 16,7 klux 9,2 C 8,7 C
01.06.2012 09:32 12,8 C 12,9 C 13,2 C 79 % 1017 hPa 0,0 l/m 3,7 m/s (3 Bft) W45 275 0 min 16,9 klux 9,2 C 9,2 C
01.06.2012 09:36 13,0 C 13,0 C 13,5 C 77 % 1017 hPa 0,0 l/m 3,0 m/s (2 Bft) W45 270 0 min 17,8 klux 9,1 C 10,6 C
01.06.2012 09:41 13,2 C 13,1 C 13,9 C 77 % 1017 hPa 0,0 l/m 2,8 m/s (2 Bft) W45 275 0 min 22,4 klux 9,3 C 11,2 C
01.06.2012 09:46 13,3 C 13,3 C 13,8 C 77 % 1017 hPa 0,0 l/m 2,3 m/s (2 Bft) W45 260 0 min 18,3 klux 9,4 C 12,2 C
01.06.2012 09:51 13,4 C 13,3 C 13,6 C 76 % 1017 hPa 0,0 l/m 3,7 m/s (3 Bft) W22.5 275 0 min 17,9 klux 9,3 C 9,9 C
01.06.2012 09:56 13,5 C 13,3 C 14,1 C 76 % 1017 hPa 0,0 l/m 4,1 m/s (3 Bft) NW45 305 0 min 27,1 klux 9,4 C 9,5 C
01.06.2012 10:02 13,8 C 13,6 C 14,2 C 76 % 1017 hPa 0,0 l/m 5,2 m/s (3 Bft) W-NW67.5 285 0 min 29,6 klux 9,6 C 8,6 C
01.06.2012 10:07 13,7 C 13,7 C 13,8 C 74 % 1017 hPa 0,0 l/m 5,6 m/s (4 Bft) NW22.5 310 0 min 15,5 klux 9,2 C 8,0 C
01.06.2012 10:11 13,4 C 13,7 C 13,8 C 74 % 1017 hPa 0,0 l/m 4,8 m/s (3 Bft) W-NW45 300 0 min 26,9 klux 8,9 C 8,5 C
01.06.2012 10:16 13,7 C 13,8 C 14,7 C 74 % 1017 hPa 0,0 l/m 4,1 m/s (3 Bft) W-NW45 300 0 min 27,3 klux 9,2 C 9,7 C
01.06.2012 10:21 14,1 C 13,9 C 14,6 C 74 % 1017 hPa 0,0 l/m 3,9 m/s (3 Bft) W-NW45 285 0 min 21,7 klux 9,5 C 10,5 C
01.06.2012 10:26 14,2 C 14,0 C 14,3 C 72 % 1017 hPa 0,0 l/m 4,9 m/s (3 Bft) W-NW45 285 0 min 22,4 klux 9,2 C 9,4 C
01.06.2012 10:32 14,5 C 14,1 C 15,3 C 72 % 1017 hPa 0,0 l/m 5,8 m/s (4 Bft) NW45 305 0 min 49,3 klux 9,5 C 8,9 C
01.06.2012 10:37 14,8 C 14,3 C 16,3 C 71 % 1017 hPa 0,0 l/m 5,5 m/s (3 Bft) NW45 315 0 min 38,1 klux 9,6 C 9,5 C
01.06.2012 10:42 16,0 C 14,8 C 16,2 C 70 % 1017 hPa 0,0 l/m 3,5 m/s (3 Bft) W45 270 0 min 57,1 klux 10,5 C 13,2 C
01.06.2012 10:47 16,5 C 15,0 C 16,0 C 67 % 1017 hPa 0,0 l/m 5,7 m/s (4 Bft) W-NW67.5 300 0 min 56,4 klux 10,4 C 11,6 C
01.06.2012 10:52 16,3 C 15,4 C 16,4 C 64 % 1017 hPa 0,0 l/m 6,1 m/s (4 Bft) NW22.5 310 5 min 84,9 klux 9,5 C 11,0 C
01.06.2012 10:57 16,2 C 15,7 C 17,0 C 63 % 1017 hPa 0,0 l/m 5,3 m/s (3 Bft) NW45 310 0 min 44,4 klux 9,1 C 11,5 C
01.06.2012 11:02 16,0 C 15,8 C 16,0 C 64 % 1017 hPa 0,0 l/m 5,3 m/s (3 Bft) W-NW45 295 0 min 32,9 klux 9,2 C 11,3 C
01.06.2012 11:07 15,8 C 15,7 C 15,7 C 64 % 1017 hPa 0,0 l/m 5,4 m/s (3 Bft) NW45 305 0 min 27,8 klux 9,0 C 11,0 C
01.06.2012 11:12 15,3 C 15,2 C 15,5 C 64 % 1017 hPa 0,0 l/m 6,1 m/s (4 Bft) NW45 320 0 min 22,1 klux 8,5 C 9,7 C
01.06.2012 11:17 15,0 C 15,1 C 15,6 C 65 % 1017 hPa 0,0 l/m 8,2 m/s (5 Bft) NW45 325 0 min 30,6 klux 8,5 C 7,8 C
01.06.2012 11:22 14,8 C 15,2 C 15,4 C 67 % 1017 hPa 0,0 l/m 6,8 m/s (4 Bft) NW22.5 320 0 min 38,0 klux 8,7 C 8,4 C
01.06.2012 11:27 14,8 C 15,1 C 15,8 C 67 % 1017 hPa 0,0 l/m 7,3 m/s (4 Bft) NW22.5 325 5 min 71,3 klux 8,7 C 8,1 C
01.06.2012 11:32 15,2 C 16,0 C 16,9 C 66 % 1017 hPa 0,0 l/m 8,4 m/s (5 Bft) NW45 315 5 min 102 klux 8,9 C 7,9 C
01.06.2012 11:37 16,1 C 16,5 C 18,2 C 66 % 1017 hPa 0,0 l/m 7,1 m/s (4 Bft) NW45 315 0 min 58,7 klux 9,7 C 10,0 C
01.06.2012 11:42 16,0 C 16,4 C 16,2 C 65 % 1017 hPa 0,0 l/m 5,2 m/s (3 Bft) NW45 320 0 min 27,1 klux 9,4 C 11,4 C
01.06.2012 11:47 15,7 C 16,4 C 18,0 C 66 % 1017 hPa 0,0 l/m 6,5 m/s (4 Bft) N-NW22.5 330 5 min 91,7 klux 9,4 C 9,9 C
01.06.2012 11:52 16,2 C 17,2 C 18,7 C 65 % 1017 hPa 0,0 l/m 8,3 m/s (5 Bft) NW22.5 325 5 min 89,8 klux 9,6 C 9,4 C
01.06.2012 11:57 16,0 C 17,0 C 18,0 C 63 % 1017 hPa 0,0 l/m 8,4 m/s (5 Bft) N-NW22.5 330 5 min 94,1 klux 9,0 C 9,0 C
01.06.2012 12:02 16,2 C 17,7 C 18,6 C 64 % 1017 hPa 0,0 l/m 6,2 m/s (4 Bft) NW45 315 5 min 94,9 klux 9,4 C 10,8 C
01.06.2012 12:06 16,3 C 18,3 C 18,9 C 64 % 1017 hPa 0,0 l/m 10,6 m/s (5 Bft) NW22.5 320 4 min 90,7 klux 9,5 C 8,4 C
01.06.2012 12:11 17,2 C 18,3 C 20,3 C 64 % 1017 hPa 0,0 l/m 8,5 m/s (5 Bft) NW45 315 5 min 117 klux 10,3 C 10,7 C
01.06.2012 12:16 17,7 C 18,6 C 20,1 C 60 % 1017 hPa 0,0 l/m 7,7 m/s (4 Bft) NW45 320 5 min 109 klux 9,8 C 11,8 C
01.06.2012 12:21 17,9 C 19,5 C 19,8 C 57 % 1017 hPa 0,0 l/m 7,8 m/s (4 Bft) NW22.5 320 5 min 84,7 klux 9,3 C 12,0 C
01.06.2012 12:26 17,7 C 19,4 C 19,9 C 58 % 1017 hPa 0,0 l/m 6,9 m/s (4 Bft) NW67.5 320 5 min 104 klux 9,3 C 12,3 C
01.06.2012 12:31 17,9 C 20,3 C 20,0 C 58 % 1017 hPa 0,0 l/m 6,3 m/s (4 Bft) NW22.5 315 5 min 113 klux 9,5 C 12,9 C
01.06.2012 12:36 17,4 C 19,9 C 20,4 C 56 % 1017 hPa 0,0 l/m 8,9 m/s (5 Bft) NW22.5 315 5 min 105 klux 8,5 C 10,8 C
01.06.2012 12:41 17,6 C 20,5 C 20,4 C 58 % 1017 hPa 0,0 l/m 7,8 m/s (4 Bft) NW22.5 325 5 min 109 klux 9,2 C 11,6 C
01.06.2012 12:46 17,8 C 20,2 C 20,4 C 57 % 1017 hPa 0,0 l/m 6,9 m/s (4 Bft) NW45 315 5 min 109 klux 9,2 C 12,4 C
01.06.2012 12:51 17,7 C 20,6 C 20,3 C 57 % 1017 hPa 0,0 l/m 8,2 m/s (5 Bft) NW22.5 320 5 min 117 klux 9,1 C 11,5 C
01.06.2012 12:56 18,1 C 21,0 C 22,1 C 57 % 1017 hPa 0,0 l/m 6,5 m/s (4 Bft) W-NW45 300 5 min 115 klux 9,4 C 13,1 C
01.06.2012 13:01 18,3 C 21,1 C 21,2 C 56 % 1017 hPa 0,0 l/m 8,4 m/s (5 Bft) NW45 320 5 min 71,7 klux 9,4 C 12,3 C
01.06.2012 13:06 18,7 C 21,8 C 22,0 C 56 % 1017 hPa 0,0 l/m 4,9 m/s (3 Bft) NW45 305 5 min 107 klux 9,7 C 15,1 C
01.06.2012 13:11 18,2 C 21,7 C 21,1 C 53 % 1017 hPa 0,0 l/m 8,5 m/s (5 Bft) NW45 315 5 min 97,4 klux 8,5 C 12,1 C
01.06.2012 13:16 17,9 C 21,7 C 21,4 C 54 % 1017 hPa 0,0 l/m 8,2 m/s (5 Bft) NW22.5 325 5 min 95,5 klux 8,5 C 11,8 C
01.06.2012 13:21 17,7 C 21,2 C 21,4 C 55 % 1017 hPa 0,0 l/m 7,5 m/s (4 Bft) NW22.5 320 5 min 93,1 klux 8,5 C 11,9 C
01.06.2012 13:26 17,9 C 21,3 C 21,7 C 56 % 1017 hPa 0,0 l/m 7,2 m/s (4 Bft) NW22.5 320 5 min 93,0 klux 9,0 C 12,4 C
01.06.2012 13:31 18,0 C 22,0 C 21,8 C 54 % 1017 hPa 0,0 l/m 7,8 m/s (4 Bft) NW22.5 315 5 min 97,3 klux 8,6 C 12,2 C
01.06.2012 13:36 18,1 C 22,2 C 22,0 C 54 % 1017 hPa 0,0 l/m 8,4 m/s (5 Bft) NW45 315 5 min 98,9 klux 8,6 C 12,0 C
01.06.2012 13:41 18,7 C 22,1 C 22,3 C 53 % 1017 hPa 0,0 l/m 8,5 m/s (5 Bft) NW22.5 325 5 min 101 klux 8,9 C 12,8 C
01.06.2012 13:46 18,7 C 22,1 C 22,0 C 53 % 1017 hPa 0,0 l/m 7,0 m/s (4 Bft) NW67.5 305 0 min 41,1 klux 8,9 C 13,6 C
01.06.2012 13:51 18,7 C 21,3 C 22,0 C 53 % 1017 hPa 0,0 l/m 7,0 m/s (4 Bft) NW22.5 320 0 min 41,7 klux 8,9 C 13,6 C
01.06.2012 13:56 18,1 C 20,5 C 20,7 C 52 % 1017 hPa 0,0 l/m 8,2 m/s (5 Bft) NW22.5 325 0 min 55,9 klux 8,1 C 12,1 C
01.06.2012 14:01 19,0 C 21,2 C 22,7 C 54 % 1017 hPa 0,0 l/m 7,1 m/s (4 Bft) NW45 320 5 min 108 klux 9,5 C 14,0 C
01.06.2012 14:06 19,5 C 21,7 C 22,4 C 53 % 1017 hPa 0,0 l/m 7,5 m/s (4 Bft) NW45 325 5 min 95,6 klux 9,7 C 14,4 C
01.06.2012 14:11 19,6 C 21,9 C 22,2 C 51 % 1017 hPa 0,0 l/m 8,3 m/s (5 Bft) NW22.5 320 5 min 114 klux 9,2 C 14,2 C
01.06.2012 14:16 19,5 C 22,1 C 22,7 C 50 % 1017 hPa 0,0 l/m 9,5 m/s (5 Bft) NW22.5 315 5 min 109 klux 8,8 C 13,5 C
01.06.2012 14:21 19,1 C 22,2 C 21,7 C 50 % 1017 hPa 0,0 l/m 7,9 m/s (4 Bft) NW22.5 315 5 min 93,8 klux 8,4 C 13,6 C
01.06.2012 14:26 18,8 C 22,2 C 21,9 C 52 % 1017 hPa 0,0 l/m 8,4 m/s (5 Bft) NW22.5 320 5 min 107 klux 8,7 C 13,0 C
01.06.2012 14:31 19,8 C 22,1 C 23,4 C 52 % 1017 hPa 0,0 l/m 8,7 m/s (5 Bft) NW45 325 5 min 109 klux 9,7 C 14,3 C
01.06.2012 14:36 20,6 C 22,2 C 22,9 C 50 % 1017 hPa 0,0 l/m 8,0 m/s (4 Bft) NW22.5 325 5 min 109 klux 9,8 C 15,7 C
01.06.2012 14:41 20,4 C 21,4 C 21,7 C 48 % 1017 hPa 0,0 l/m 9,1 m/s (5 Bft) N-NW22.5 330 5 min 104 klux 9,0 C 15,0 C
01.06.2012 14:46 19,2 C 20,7 C 20,9 C 49 % 1017 hPa 0,0 l/m 7,6 m/s (4 Bft) N-NW22.5 330 0 min 31,1 klux 8,2 C 14,0 C
01.06.2012 14:51 18,0 C 19,8 C 20,0 C 52 % 1017 hPa 0,0 l/m 8,2 m/s (5 Bft) NW22.5 320 0 min 21,7 klux 8,0 C 12,0 C
01.06.2012 14:56 17,8 C 20,1 C 20,6 C 54 % 1017 hPa 0,0 l/m 7,1 m/s (4 Bft) NW45 320 5 min 67,3 klux 8,4 C 12,3 C
01.06.2012 15:01 18,2 C 20,4 C 20,3 C 55 % 1017 hPa 0,0 l/m 5,5 m/s (3 Bft) N-NW22.5 330 5 min 91,7 klux 9,0 C 13,9 C
01.06.2012 15:06 18,2 C 21,4 C 21,3 C 55 % 1017 hPa 0,0 l/m 7,3 m/s (4 Bft) NW45 305 5 min 84,7 klux 9,0 C 12,7 C
01.06.2012 15:11 19,3 C 21,7 C 20,9 C 53 % 1017 hPa 0,0 l/m 7,8 m/s (4 Bft) W-NW45 295 5 min 108 klux 9,5 C 14,0 C
01.06.2012 15:16 19,0 C 21,0 C 19,3 C 52 % 1017 hPa 0,0 l/m 6,9 m/s (4 Bft) NW22.5 320 0 min 18,3 klux 8,9 C 14,0 C
01.06.2012 15:21 18,3 C 20,1 C 19,4 C 53 % 1017 hPa 0,0 l/m 6,3 m/s (4 Bft) NW22.5 325 0 min 19,3 klux 8,6 C 13,5 C
01.06.2012 15:26 17,1 C 19,4 C 19,2 C 56 % 1017 hPa 0,0 l/m 6,5 m/s (4 Bft) NW45 320 0 min 18,8 klux 8,3 C 11,8 C
01.06.2012 15:31 17,1 C 18,8 C 20,5 C 57 % 1017 hPa 0,0 l/m 4,5 m/s (3 Bft) NW45 315 0 min 46,9 klux 8,5 C 13,4 C
01.06.2012 15:36 18,3 C 19,0 C 21,0 C 57 % 1017 hPa 0,0 l/m 4,7 m/s (3 Bft) NW22.5 320 0 min 59,1 klux 9,6 C 14,7 C
01.06.2012 15:41 18,8 C 19,5 C 20,9 C 54 % 1017 hPa 0,0 l/m 8,4 m/s (5 Bft) N-NW22.5 330 5 min 74,8 klux 9,3 C 13,0 C
01.06.2012 15:46 19,3 C 20,2 C 21,9 C 54 % 1017 hPa 0,0 l/m 5,8 m/s (4 Bft) NW22.5 305 5 min 66,1 klux 9,8 C 15,1 C
01.06.2012 15:51 19,4 C 20,0 C 20,5 C 51 % 1017 hPa 0,0 l/m 8,4 m/s (5 Bft) NW67.5 320 5 min 100 klux 9,0 C 13,8 C
01.06.2012 15:56 18,7 C 20,2 C 19,6 C 53 % 1017 hPa 0,0 l/m 6,2 m/s (4 Bft) NW45 325 0 min 35,5 klux 8,9 C 14,1 C
01.06.2012 16:01 18,6 C 19,8 C 20,2 C 54 % 1017 hPa 0,0 l/m 5,6 m/s (4 Bft) N-NW22.5 330 0 min 54,3 klux 9,1 C 14,3 C
01.06.2012 16:06 18,2 C 19,6 C 20,0 C 54 % 1017 hPa 0,0 l/m 6,5 m/s (4 Bft) NW22.5 320 0 min 31,9 klux 8,7 C 13,2 C
01.06.2012 16:11 18,0 C 19,3 C 19,3 C 55 % 1017 hPa 0,0 l/m 8,1 m/s (5 Bft) NW45 310 0 min 31,2 klux 8,8 C 12,0 C
01.06.2012 16:16 18,2 C 19,0 C 19,6 C 56 % 1017 hPa 0,0 l/m 4,5 m/s (3 Bft) NW22.5 325 0 min 33,7 klux 9,3 C 14,7 C
01.06.2012 16:21 18,3 C 18,4 C 18,9 C 56 % 1017 hPa 0,0 l/m 5,0 m/s (3 Bft) NW45 320 0 min 18,4 klux 9,4 C 14,4 C
01.06.2012 16:26 17,8 C 18,4 C 18,3 C 56 % 1017 hPa 0,0 l/m 6,3 m/s (4 Bft) NW45 320 0 min 15,1 klux 8,9 C 12,8 C
01.06.2012 16:32 17,5 C 18,1 C 18,6 C 56 % 1017 hPa 0,0 l/m 5,7 m/s (4 Bft) NW45 325 0 min 18,5 klux 8,6 C 12,9 C
01.06.2012 16:37 17,4 C 17,7 C 19,0 C 56 % 1017 hPa 0,0 l/m 5,1 m/s (3 Bft) NW45 315 0 min 21,1 klux 8,5 C 13,2 C
01.06.2012 16:42 17,3 C 17,7 C 18,8 C 56 % 1017 hPa 0,0 l/m 4,8 m/s (3 Bft) NW45 310 0 min 19,6 klux 8,4 C 13,4 C
01.06.2012 16:47 17,3 C 17,7 C 19,1 C 57 % 1017 hPa 0,0 l/m 5,2 m/s (3 Bft) NW45 315 0 min 19,8 klux 8,7 C 13,0 C
01.06.2012 16:52 17,4 C 17,6 C 19,1 C 57 % 1017 hPa 0,0 l/m 4,3 m/s (3 Bft) W-NW45 295 0 min 23,1 klux 8,8 C 14,0 C
01.06.2012 16:57 17,9 C 17,6 C 19,4 C 57 % 1017 hPa 0,0 l/m 4,7 m/s (3 Bft) N-NW22.5 330 0 min 34,3 klux 9,3 C 14,2 C
01.06.2012 17:02 17,9 C 17,7 C 19,3 C 56 % 1017 hPa 0,0 l/m 6,7 m/s (4 Bft) N-NW22.5 330 0 min 30,1 klux 9,0 C 12,7 C
01.06.2012 17:07 17,9 C 17,6 C 19,0 C 56 % 1017 hPa 0,0 l/m 7,8 m/s (4 Bft) N-NW22.5 330 0 min 21,9 klux 9,0 C 12,0 C
01.06.2012 17:12 18,0 C 17,6 C 18,7 C 55 % 1017 hPa 0,0 l/m 7,5 m/s (4 Bft) N-NW22.5 330 0 min 26,7 klux 8,8 C 12,3 C
01.06.2012 17:17 17,6 C 17,6 C 18,2 C 56 % 1017 hPa 0,0 l/m 7,0 m/s (4 Bft) NW22.5 320 0 min 18,6 klux 8,7 C 12,1 C
01.06.2012 17:22 17,4 C 17,5 C 18,2 C 56 % 1017 hPa 0,0 l/m 6,3 m/s (4 Bft) NW45 320 0 min 20,4 klux 8,5 C 12,3 C
01.06.2012 17:27 17,7 C 17,6 C 19,2 C 56 % 1017 hPa 0,0 l/m 5,2 m/s (3 Bft) NW45 315 0 min 32,0 klux 8,8 C 13,5 C
01.06.2012 17:32 17,9 C 17,8 C 18,1 C 57 % 1017 hPa 0,0 l/m 5,8 m/s (4 Bft) NW45 325 0 min 23,4 klux 9,3 C 13,3 C
01.06.2012 17:37 17,8 C 17,8 C 18,2 C 57 % 1017 hPa 0,0 l/m 2,4 m/s (2 Bft) NW22.5 310 0 min 19,0 klux 9,2 C 16,7 C
01.06.2012 17:42 18,0 C 17,5 C 18,1 C 56 % 1017 hPa 0,0 l/m 0,1 m/s (0 Bft) NW22.5 315 0 min 22,5 klux 9,1 C 18,0 C
01.06.2012 17:47 17,5 C 17,0 C 18,2 C 56 % 1017 hPa 0,0 l/m 0,0 m/s (0 Bft) N-NW22.5 335 0 min 17,8 klux 8,6 C 17,5 C
01.06.2012 17:52 17,0 C 16,9 C 16,8 C 55 % 1017 hPa 0,0 l/m 8,4 m/s (5 Bft) N-NW22.5 335 0 min 9,7 klux 7,9 C 10,5 C
01.06.2012 17:57 16,3 C 16,6 C 17,1 C 57 % 1017 hPa 0,0 l/m 6,5 m/s (4 Bft) NW45 320 0 min 9,9 klux 7,8 C 10,7 C
01.06.2012 18:02 15,8 C 16,1 C 16,7 C 59 % 1017 hPa 0,0 l/m 8,3 m/s (5 Bft) N-NW22.5 335 0 min 12,0 klux 7,8 C 8,8 C
01.06.2012 18:07 15,7 C 16,3 C 16,6 C 59 % 1017 hPa 0,0 l/m 8,3 m/s (5 Bft) N-NW22.5 330 0 min 16,8 klux 7,7 C 8,7 C
01.06.2012 18:12 15,9 C 16,4 C 17,3 C 60 % 1017 hPa 0,0 l/m 6,2 m/s (4 Bft) N-NW22.5 335 0 min 27,5 klux 8,1 C 10,4 C
01.06.2012 18:17 16,9 C 16,6 C 17,8 C 59 % 1017 hPa 0,0 l/m 6,2 m/s (4 Bft) NW22.5 325 0 min 28,9 klux 8,8 C 11,7 C
01.06.2012 18:22 17,1 C 16,7 C 17,9 C 57 % 1017 hPa 0,0 l/m 6,5 m/s (4 Bft) N-NW45 330 0 min 29,0 klux 8,5 C 11,8 C
01.06.2012 18:27 17,1 C 16,8 C 17,9 C 58 % 1017 hPa 0,0 l/m 5,9 m/s (4 Bft) NW45 325 0 min 21,1 klux 8,8 C 12,2 C
01.06.2012 18:32 17,1 C 16,7 C 17,8 C 57 % 1017 hPa 0,0 l/m 4,3 m/s (3 Bft) NW45 320 0 min 21,7 klux 8,5 C 13,6 C
01.06.2012 18:37 17,2 C 16,8 C 17,6 C 58 % 1017 hPa 0,0 l/m 3,8 m/s (3 Bft) N-NW22.5 330 0 min 21,7 klux 8,9 C 14,3 C
01.06.2012 18:41 17,3 C 16,7 C 17,8 C 57 % 1017 hPa 0,0 l/m 2,7 m/s (2 Bft) N-NW22.5 330 0 min 22,7 klux 8,7 C 15,7 C
01.06.2012 18:46 17,1 C 16,5 C 17,3 C 57 % 1017 hPa 0,0 l/m 3,5 m/s (3 Bft) NW22.5 320 0 min 18,9 klux 8,5 C 14,5 C
01.06.2012 18:51 16,6 C 16,4 C 17,0 C 57 % 1017 hPa 0,0 l/m 4,6 m/s (3 Bft) NW45 320 0 min 15,1 klux 8,0 C 12,7 C
01.06.2012 18:56 16,0 C 16,3 C 16,9 C 58 % 1017 hPa 0,0 l/m 4,6 m/s (3 Bft) NW22.5 325 0 min 13,9 klux 7,7 C 11,9 C
01.06.2012 19:02 15,6 C 15,9 C 16,8 C 59 % 1017 hPa 0,0 l/m 6,9 m/s (4 Bft) NW22.5 325 0 min 15,6 klux 7,6 C 9,5 C
01.06.2012 19:07 15,5 C 15,9 C 17,0 C 61 % 1017 hPa 0,0 l/m 4,8 m/s (3 Bft) NW22.5 325 0 min 21,1 klux 8,0 C 11,1 C
01.06.2012 19:12 18,2 C 16,9 C 16,6 C 60 % 1017 hPa 0,0 l/m 5,0 m/s (3 Bft) N-NW22.5 335 5 min 38,4 klux 10,3 C 14,3 C
01.06.2012 19:16 20,6 C 17,4 C 16,5 C 52 % 1017 hPa 0,0 l/m 0,0 m/s (0 Bft) NW45 305 4 min 37,0 klux 10,4 C 20,6 C
01.06.2012 19:21 20,0 C 17,7 C 16,1 C 48 % 1017 hPa 0,0 l/m 0,1 m/s (0 Bft) NW45 320 0 min 17,5 klux 8,7 C 20,0 C
01.06.2012 19:26 19,4 C 17,7 C 15,6 C 51 % 1017 hPa 0,0 l/m 6,0 m/s (4 Bft) N-NW45 330 5 min 31,4 klux 9,0 C 15,2 C
01.06.2012 19:31 19,2 C 17,8 C 15,8 C 48 % 1017 hPa 0,0 l/m 5,8 m/s (4 Bft) N-NW22.5 330 5 min 27,2 klux 7,9 C 15,0 C
01.06.2012 19:36 18,9 C 17,8 C 15,7 C 50 % 1017 hPa 0,0 l/m 3,4 m/s (2 Bft) NW22.5 305 5 min 26,2 klux 8,2 C 16,7 C
01.06.2012 19:41 19,0 C 18,1 C 15,8 C 50 % 1017 hPa 0,0 l/m 4,6 m/s (3 Bft) NW22.5 315 5 min 23,7 klux 8,3 C 15,7 C
01.06.2012 19:46 19,1 C 18,0 C 15,6 C 49 % 1017 hPa 0,0 l/m 5,2 m/s (3 Bft) NW45 315 5 min 20,4 klux 8,1 C 15,3 C
01.06.2012 19:51 18,9 C 17,7 C 15,2 C 49 % 1017 hPa 0,0 l/m 2,9 m/s (2 Bft) NW45 325 0 min 16,8 klux 7,9 C 17,3 C
01.06.2012 19:56 18,7 C 17,0 C 15,0 C 51 % 1017 hPa 0,0 l/m 4,3 m/s (3 Bft) NW45 320 5 min 17,2 klux 8,4 C 15,6 C
01.06.2012 20:01 18,8 C 17,2 C 15,1 C 49 % 1017 hPa 0,0 l/m 4,2 m/s (3 Bft) NW45 310 5 min 16,7 klux 7,9 C 15,7 C
01.06.2012 20:07 18,9 C 17,1 C 15,0 C 50 % 1017 hPa 0,0 l/m 3,9 m/s (3 Bft) W-NW45 300 6 min 14,6 klux 8,2 C 16,2 C
01.06.2012 20:12 18,7 C 16,9 C 14,8 C 49 % 1017 hPa 0,0 l/m 0,0 m/s (0 Bft) W-NW22.5 285 0 min 10,2 klux 7,8 C 18,7 C
01.06.2012 20:17 16,4 C 16,1 C 14,8 C 51 % 1017 hPa 0,0 l/m 3,6 m/s (3 Bft) NW22.5 315 0 min 5,31 klux 6,2 C 13,5 C
01.06.2012 20:22 15,1 C 15,8 C 14,7 C 55 % 1017 hPa 0,0 l/m 4,9 m/s (3 Bft) NW45 320 0 min 6,61 klux 6,1 C 10,5 C
01.06.2012 20:27 15,0 C 15,6 C 14,8 C 56 % 1018 hPa 0,0 l/m 0,0 m/s (0 Bft) W-SW 255 0 min 9,5 klux 6,3 C 15,0 C
01.06.2012 20:32 16,3 C 15,6 C 14,4 C 57 % 1017 hPa 0,0 l/m 0,0 m/s (0 Bft) W 260 0 min 8,93 klux 7,8 C 16,3 C
01.06.2012 20:37 17,0 C 15,6 C 14,5 C 54 % 1017 hPa 0,0 l/m 0,2 m/s (0 Bft) W22.5 265 0 min 7,25 klux 7,6 C 17,0 C
01.06.2012 20:42 16,8 C 15,1 C 14,3 C 54 % 1017 hPa 0,0 l/m 0,0 m/s (0 Bft) W22.5 265 0 min 6,18 klux 7,4 C 16,8 C
01.06.2012 20:47 15,8 C 14,8 C 13,9 C 55 % 1017 hPa 0,0 l/m 0,0 m/s (0 Bft) W 260 0 min 3,99 klux 6,8 C 15,8 C
01.06.2012 20:52 14,6 C 14,5 C 14,0 C 56 % 1017 hPa 0,0 l/m 0,0 m/s (0 Bft) W 265 0 min 3,09 klux 5,9 C 14,6 C
01.06.2012 20:57 14,2 C 14,4 C 13,6 C 57 % 1017 hPa 0,0 l/m 0,0 m/s (0 Bft) W22.5 265 0 min 2,81 klux 5,8 C 14,2 C
01.06.2012 21:02 13,6 C 14,1 C 13,1 C 58 % 1017 hPa 0,0 l/m 0,0 m/s (0 Bft) W 260 0 min 2,32 klux 5,5 C 13,6 C
01.06.2012 21:07 13,2 C 13,9 C 13,6 C 59 % 1017 hPa 0,0 l/m 0,0 m/s (0 Bft) W 260 0 min 1,92 klux 5,4 C 13,2 C
01.06.2012 21:12 12,8 C 13,8 C 13,2 C 60 % 1017 hPa 0,0 l/m 0,0 m/s (0 Bft) W 260 0 min 1,56 klux 5,2 C 12,8 C
01.06.2012 21:17 12,7 C 13,5 C 13,0 C 61 % 1017 hPa 0,0 l/m 0,0 m/s (0 Bft) W22.5 270 5 min 1,28 klux 5,4 C 12,7 C
01.06.2012 21:22 12,4 C 13,3 C 12,7 C 61 % 1017 hPa 0,0 l/m 0,0 m/s (0 Bft) W22.5 270 0 min 1,01 klux 5,1 C 12,4 C
01.06.2012 21:27 12,1 C 13,1 C 12,6 C 61 % 1017 hPa 0,0 l/m 0,0 m/s (0 Bft) W 275 0 min 757 lux 4,8 C 12,1 C
01.06.2012 21:32 12,0 C 12,9 C 12,9 C 61 % 1017 hPa 0,0 l/m 0,0 m/s (0 Bft) W 275 0 min 506 lux 4,7 C 12,0 C
01.06.2012 21:37 11,7 C 12,7 C 12,5 C 62 % 1017 hPa 0,0 l/m 0,0 m/s (0 Bft) W 275 0 min 315 lux 4,7 C 11,7 C
01.06.2012 21:42 11,6 C 12,7 C 12,2 C 63 % 1017 hPa 0,0 l/m 0,0 m/s (0 Bft) W 275 0 min 214 lux 4,8 C 11,6 C
01.06.2012 21:47 11,5 C 12,5 C 12,1 C 63 % 1017 hPa 0,0 l/m 0,0 m/s (0 Bft) W 275 0 min 214 lux 4,7 C 11,5 C
01.06.2012 21:52 11,4 C 12,4 C 12,9 C 63 % 1017 hPa 0,0 l/m 0,0 m/s (0 Bft) W 275 0 min 86 lux 4,6 C 11,4 C
01.06.2012 21:57 11,3 C 12,3 C 12,7 C 63 % 1017 hPa 0,0 l/m 0,0 m/s (0 Bft) W 275 0 min 44 lux 4,5 C 11,3 C
01.06.2012 22:02 11,3 C 12,3 C 12,5 C 63 % 1017 hPa 0,0 l/m 0,0 m/s (0 Bft) W 275 0 min 22 lux 4,5 C 11,3 C
01.06.2012 22:07 11,2 C 12,2 C 12,1 C 64 % 1017 hPa 0,0 l/m 0,0 m/s (0 Bft) W 275 0 min 9 lux 4,6 C 11,2 C
01.06.2012 22:12 11,2 C 12,1 C 13,0 C 64 % 1017 hPa 0,0 l/m 0,0 m/s (0 Bft) W 275 0 min 3 lux 4,6 C 11,2 C
01.06.2012 22:17 11,2 C 11,9 C 12,4 C 64 % 1017 hPa 0,0 l/m 0,0 m/s (0 Bft) W 275 0 min 0 lux 4,6 C 11,2 C
01.06.2012 22:22 11,1 C 11,9 C 12,8 C 65 % 1017 hPa 0,0 l/m 0,0 m/s (0 Bft) W 275 0 min 0 lux 4,8 C 11,1 C
01.06.2012 22:26 11,1 C 11,8 C 11,9 C 65 % 1017 hPa 0,0 l/m 0,0 m/s (0 Bft) W 275 0 min 0 lux 4,8 C 11,1 C
01.06.2012 22:31 10,9 C 11,7 C 12,8 C 66 % 1017 hPa 0,0 l/m 0,0 m/s (0 Bft) W 275 0 min 0 lux 4,8 C 10,9 C
01.06.2012 22:36 10,8 C 11,7 C 11,7 C 66 % 1017 hPa 0,0 l/m 0,0 m/s (0 Bft) W 275 0 min 0 lux 4,7 C 10,8 C
01.06.2012 22:41 10,6 C 11,6 C 11,5 C 66 % 1017 hPa 0,0 l/m 0,0 m/s (0 Bft) W 275 0 min 0 lux 4,5 C 10,6 C
01.06.2012 22:46 10,5 C 11,5 C 12,4 C 66 % 1017 hPa 0,0 l/m 0,0 m/s (0 Bft) W 275 0 min 0 lux 4,4 C 10,5 C
01.06.2012 22:51 10,5 C 11,4 C 12,4 C 66 % 1017 hPa 0,0 l/m 0,0 m/s (0 Bft) W 275 0 min 0 lux 4,4 C 10,5 C
01.06.2012 22:56 10,3 C 11,3 C 11,7 C 67 % 1017 hPa 0,0 l/m 0,0 m/s (0 Bft) W 275 0 min 0 lux 4,4 C 10,3 C
01.06.2012 23:01 10,3 C 11,1 C 11,7 C 67 % 1017 hPa 0,0 l/m 0,0 m/s (0 Bft) W 275 0 min 0 lux 4,4 C 10,3 C
01.06.2012 23:06 10,1 C 11,0 C 11,4 C 67 % 1017 hPa 0,0 l/m 0,0 m/s (0 Bft) W 275 0 min 0 lux 4,3 C 10,1 C
01.06.2012 23:11 10,1 C 10,9 C 11,2 C 67 % 1017 hPa 0,0 l/m 0,0 m/s (0 Bft) W 275 0 min 0 lux 4,3 C 10,1 C
01.06.2012 23:16 9,9 C 10,8 C 11,7 C 68 % 1017 hPa 0,0 l/m 0,0 m/s (0 Bft) W 275 0 min 0 lux 4,3 C 9,9 C
01.06.2012 23:21 9,9 C 10,7 C 10,8 C 68 % 1017 hPa 0,0 l/m 0,0 m/s (0 Bft) W 275 0 min 0 lux 4,3 C 9,9 C
01.06.2012 23:26 9,9 C 10,6 C 11,2 C 68 % 1017 hPa 0,0 l/m 0,0 m/s (0 Bft) W 275 0 min 0 lux 4,3 C 9,9 C
01.06.2012 23:31 9,6 C 10,5 C 10,3 C 68 % 1017 hPa 0,0 l/m 0,0 m/s (0 Bft) W 275 0 min 0 lux 4,0 C 9,6 C
01.06.2012 23:36 9,5 C 10,4 C 11,3 C 68 % 1017 hPa 0,0 l/m 0,0 m/s (0 Bft) W 275 0 min 0 lux 3,9 C 9,5 C
01.06.2012 23:41 9,5 C 10,3 C 10,7 C 68 % 1017 hPa 0,0 l/m 0,0 m/s (0 Bft) W 275 0 min 0 lux 3,9 C 9,5 C
01.06.2012 23:46 9,4 C 10,2 C 10,4 C 68 % 1017 hPa 0,0 l/m 0,0 m/s (0 Bft) W 275 0 min 0 lux 3,8 C 9,4 C
01.06.2012 23:51 9,3 C 10,1 C 10,4 C 69 % 1017 hPa 0,0 l/m 0,0 m/s (0 Bft) W 275 0 min 0 lux 3,9 C 9,3 C
01.06.2012 23:56 9,2 C 10,0 C 10,5 C 69 % 1017 hPa 0,0 l/m 0,0 m/s (0 Bft) W 275 0 min 0 lux 3,8 C 9,2 C
_ Min-Zeit 23:56 23:56 23:31 14:41 00:41 - 19:16 - - - - 23:46 04:52
Minimum _ 9,2 C 10,0 C 10,3 C 48 % 1013 hPa - 0,0 m/s (0 Bft) - - - - 3,8 C 3,4 C
_ Max-Zeit 14:36 13:36 14:31 00:56 20:27 00:07 12:06 - - 20:07 12:11 00:56 19:16
Maximum _ 20,6 C 22,2 C 23,4 C 88 % 1018 hPa 1,1 l/m 10,6 m/s
NW (5 Bft)
- - 6 min 117 klux 11,0 C 20,6 C
Durchschnitt _ 14,3 C 15,0 C 15,0 C 69 % 1016 hPa #4,0 l/m 4,3 m/s (3 Bft) NW - #4:29 h 24,3 klux 8,4 C 10,7 C